Time;durP1;ratioP1;P1;durP2;ratioP2;P2;SDS_P1;SDS_P2;PMS_P1;PMS_P2;Temp;Humidity;BMP_temperature;BMP_pressure;BME280_temperature;BME280_humidity;BME280_pressure;Samples;Min_cycle;Max_cycle;Signal;HPM_P1;HPM_P2
2022/09/19 00:00:19;;;;;;;4.63;3.45;;;;;;;9.74;65.33;94980.97;5075714;28;20201;-72
2022/09/19 00:02:47;;;;;;;4.18;3.85;;;;;;;9.76;65.24;94977.88;5076568;28;20174;-72
2022/09/19 00:05:14;;;;;;;4.95;3.20;;;;;;;9.75;65.41;94979.03;5076220;28;20182;-72
2022/09/19 00:07:42;;;;;;;5.38;4.18;;;;;;;9.75;65.55;94977.06;5075757;28;20215;-72
2022/09/19 00:10:10;;;;;;;5.80;4.22;;;;;;;9.73;65.30;94979.38;5075627;28;20205;-72
2022/09/19 00:12:37;;;;;;;4.43;3.80;;;;;;;9.70;65.16;94969.06;5076044;28;20196;-72
2022/09/19 00:15:04;;;;;;;4.32;3.70;;;;;;;9.69;65.20;94961.13;5075896;28;20225;-72
2022/09/19 00:17:31;;;;;;;5.28;4.07;;;;;;;9.68;65.51;94965.84;5075187;28;20705;-72
2022/09/19 00:19:59;;;;;;;5.25;3.92;;;;;;;9.65;65.23;94963.78;5074979;28;20197;-72
2022/09/19 00:22:26;;;;;;;4.22;3.80;;;;;;;9.59;65.27;94957.72;5075857;28;20192;-72
2022/09/19 00:24:52;;;;;;;3.80;3.50;;;;;;;9.55;65.47;94950.50;5075915;28;20184;-72
2022/09/19 00:27:22;;;;;;;4.25;3.85;;;;;;;9.56;65.79;94949.38;5074968;28;20504;-72
2022/09/19 00:29:49;;;;;;;3.53;3.22;;;;;;;9.58;66.03;94955.31;5076039;28;20204;-73
2022/09/19 00:32:16;;;;;;;4.43;4.03;;;;;;;9.58;66.05;94966.31;5075886;28;20204;-72
2022/09/19 00:34:45;;;;;;;6.38;4.03;;;;;;;9.57;65.69;94953.72;5074926;28;20217;-72
2022/09/19 00:37:13;;;;;;;4.70;3.45;;;;;;;9.54;65.33;94960.72;5074604;28;20221;-72
2022/09/19 00:39:40;;;;;;;5.88;3.65;;;;;;;9.47;65.18;94960.50;5074766;28;20201;-72
2022/09/19 00:42:14;;;;;;;4.68;3.72;;;;;;;9.47;65.86;94966.00;5075689;28;20178;-72
2022/09/19 00:44:53;;;;;;;3.95;3.60;;;;;;;9.48;65.87;94964.09;5075745;28;20188;-72
2022/09/19 00:47:25;;;;;;;3.60;3.30;;;;;;;9.51;65.97;94961.41;5075725;28;20192;-72
2022/09/19 00:49:55;;;;;;;3.90;3.42;;;;;;;9.51;65.98;94969.66;5075333;28;20701;-72
2022/09/19 00:52:30;;;;;;;3.88;3.47;;;;;;;9.51;65.96;94974.38;5074610;28;20298;-72
2022/09/19 00:54:58;;;;;;;3.80;3.15;;;;;;;9.51;65.95;94963.38;5074577;28;20212;-72
2022/09/19 00:57:28;;;;;;;3.13;2.83;;;;;;;9.49;65.96;94963.72;5075283;28;20289;-72
2022/09/19 00:59:55;;;;;;;3.42;3.13;;;;;;;9.48;65.93;94959.38;5075657;28;20197;-72
2022/09/19 01:02:23;;;;;;;3.20;2.90;;;;;;;9.47;65.93;94966.00;5075460;28;20204;-72
2022/09/19 01:04:50;;;;;;;3.88;3.20;;;;;;;9.45;65.64;94949.06;5074950;28;20193;-72
2022/09/19 01:07:26;;;;;;;2.88;2.58;;;;;;;9.44;65.37;94946.63;5074906;28;20185;-72
2022/09/19 01:09:58;;;;;;;3.15;2.78;;;;;;;9.44;65.48;94952.16;5075502;28;20195;-71
2022/09/19 01:12:44;;;;;;;3.63;3.10;;;;;;;9.37;65.05;94959.06;5075304;28;20195;-72
2022/09/19 01:15:22;;;;;;;3.42;2.97;;;;;;;9.32;65.34;94964.78;5074793;28;20286;-72
2022/09/19 01:17:51;;;;;;;6.40;3.20;;;;;;;9.27;65.39;94953.25;5075270;28;20192;-72
2022/09/19 01:20:57;;;;;;;3.70;3.35;;;;;;;9.26;65.41;94959.88;5074411;28;20197;-72
2022/09/19 01:23:40;;;;;;;3.00;2.80;;;;;;;9.20;65.51;94951.06;5067532;28;20209;-72
2022/09/19 01:26:19;;;;;;;3.70;2.83;;;;;;;9.20;65.74;94962.06;5075239;28;20219;-72
2022/09/19 01:28:50;;;;;;;2.65;2.45;;;;;;;9.18;65.39;94958.84;5074310;28;20208;-72
2022/09/19 01:31:23;;;;;;;3.20;2.90;;;;;;;9.15;65.23;94957.63;5075040;28;20192;-71
2022/09/19 01:34:02;;;;;;;2.83;2.63;;;;;;;9.12;65.36;94957.50;5074889;28;20582;-71
2022/09/19 01:36:34;;;;;;;3.03;2.70;;;;;;;9.02;65.15;94956.03;5073819;28;20244;-72
2022/09/19 01:39:03;;;;;;;2.92;2.65;;;;;;;8.97;64.97;94942.50;5074204;28;20197;-72
2022/09/19 01:41:30;;;;;;;3.42;2.75;;;;;;;8.95;65.40;94952.25;5074227;28;20185;-72
2022/09/19 01:44:05;;;;;;;3.25;2.80;;;;;;;8.94;65.63;94948.69;5074845;28;20189;-72
2022/09/19 01:46:39;;;;;;;2.92;2.70;;;;;;;8.95;65.67;94944.78;5074987;28;20231;-72
2022/09/19 01:49:10;;;;;;;4.00;2.80;;;;;;;8.93;65.45;94949.81;5074733;28;20200;-72
2022/09/19 01:51:40;;;;;;;2.83;2.63;;;;;;;8.89;65.67;94951.66;5074999;28;20193;-72
2022/09/19 01:54:27;;;;;;;3.05;2.75;;;;;;;8.88;65.77;94944.56;5074677;28;20609;-72
2022/09/19 01:57:00;;;;;;;4.00;2.70;;;;;;;8.87;65.85;94941.03;5074710;28;20196;-72
2022/09/19 01:59:40;;;;;;;3.33;3.00;;;;;;;8.82;65.57;94944.00;5074297;28;20200;-72
2022/09/19 02:02:13;;;;;;;3.85;2.70;;;;;;;8.80;65.87;94940.00;5074941;28;20185;-72
2022/09/19 02:04:45;;;;;;;3.40;2.88;;;;;;;8.78;66.15;94940.31;5074949;28;20189;-72
2022/09/19 02:07:20;;;;;;;3.22;2.70;;;;;;;8.79;66.06;94944.69;5073973;28;20193;-70
2022/09/19 02:09:50;;;;;;;4.78;2.70;;;;;;;8.81;66.18;94939.63;5074924;28;20270;-71
2022/09/19 02:12:20;;;;;;;3.17;2.80;;;;;;;8.83;66.43;94944.81;5074318;28;20185;-71
2022/09/19 02:14:54;;;;;;;2.95;2.70;;;;;;;8.80;66.57;94938.03;5073334;28;20236;-71
2022/09/19 02:17:24;;;;;;;3.33;2.95;;;;;;;8.80;66.34;94934.50;5074184;28;20198;-71
2022/09/19 02:19:54;;;;;;;3.08;2.88;;;;;;;8.81;66.24;94930.59;5073891;28;20228;-71
2022/09/19 02:22:26;;;;;;;6.00;3.80;;;;;;;8.82;66.36;94937.69;5073651;28;20201;-71
2022/09/19 02:24:58;;;;;;;4.20;3.80;;;;;;;8.82;66.11;94932.19;5074785;28;20192;-72
2022/09/19 02:27:28;;;;;;;3.92;3.45;;;;;;;8.80;66.32;94929.78;5073695;28;20201;-72
2022/09/19 02:30:00;;;;;;;3.28;2.97;;;;;;;8.78;66.36;94936.78;5073779;28;20204;-71
2022/09/19 02:32:27;;;;;;;3.10;2.80;;;;;;;8.73;66.22;94924.06;5073573;28;20193;-71
2022/09/19 02:34:55;;;;;;;4.25;3.22;;;;;;;8.71;66.16;94925.56;5073495;28;20231;-71
2022/09/19 02:37:29;;;;;;;3.88;3.28;;;;;;;8.72;66.22;94927.19;5074744;28;20188;-71
2022/09/19 02:40:00;;;;;;;5.38;3.55;;;;;;;8.72;65.95;94922.47;5073361;28;20197;-71
2022/09/19 02:42:33;;;;;;;3.58;3.30;;;;;;;8.72;65.94;94927.19;5077060;28;20193;-71
2022/09/19 02:45:08;;;;;;;4.70;3.30;;;;;;;8.71;65.99;94925.56;5077414;28;20217;-71
2022/09/19 02:47:39;;;;;;;4.38;2.97;;;;;;;8.64;65.86;94926.13;5077305;28;20232;-71
2022/09/19 02:50:10;;;;;;;3.65;2.83;;;;;;;8.57;65.66;94928.63;5078091;28;20223;-71
2022/09/19 02:52:39;;;;;;;3.72;2.40;;;;;;;8.52;65.13;94928.88;5077688;28;20204;-71
2022/09/19 02:55:09;;;;;;;2.75;2.55;;;;;;;8.47;65.40;94931.88;5076986;28;20215;-71
2022/09/19 02:57:37;;;;;;;3.05;2.85;;;;;;;8.40;65.65;94927.72;5077101;28;20193;-71
2022/09/19 03:00:07;;;;;;;3.08;2.70;;;;;;;8.37;65.74;94922.09;5076968;28;20666;-71
2022/09/19 03:02:36;;;;;;;3.15;2.60;;;;;;;8.32;65.77;94923.13;5077817;28;20213;-71
2022/09/19 03:05:07;;;;;;;3.10;2.80;;;;;;;8.31;66.05;94926.19;5077747;28;20200;-71
2022/09/19 03:07:36;;;;;;;3.83;3.40;;;;;;;8.32;66.21;94925.88;5076810;28;20193;-71
2022/09/19 03:10:05;;;;;;;4.75;3.60;;;;;;;8.35;66.39;94924.34;5076766;28;20201;-71
2022/09/19 03:12:37;;;;;;;3.33;3.03;;;;;;;8.38;66.17;94929.22;5076428;28;20605;-71
2022/09/19 03:15:07;;;;;;;3.40;3.10;;;;;;;8.35;66.31;94927.94;5076173;28;20244;-71
2022/09/19 03:17:38;;;;;;;4.05;3.35;;;;;;;8.33;66.58;94919.22;5076283;28;20197;-71
2022/09/19 03:20:11;;;;;;;3.58;3.15;;;;;;;8.37;66.59;94919.34;5077454;28;20177;-71
2022/09/19 03:22:39;;;;;;;5.72;3.33;;;;;;;8.37;66.75;94922.09;5077452;28;20548;-71
2022/09/19 03:25:07;;;;;;;3.92;3.42;;;;;;;8.36;66.09;94925.97;5076514;28;20189;-71
2022/09/19 03:27:36;;;;;;;3.80;3.45;;;;;;;8.35;66.51;94936.19;5076063;28;20659;-71
2022/09/19 03:30:07;;;;;;;4.45;3.88;;;;;;;8.37;66.54;94933.06;5077309;28;20182;-71
2022/09/19 03:32:35;;;;;;;4.95;3.75;;;;;;;8.39;66.53;94928.09;5077155;28;20221;-71
2022/09/19 03:35:02;;;;;;;4.50;3.72;;;;;;;8.36;66.54;94926.78;5076173;28;20295;-71
2022/09/19 03:37:29;;;;;;;3.63;3.33;;;;;;;8.33;66.49;94924.72;5076434;28;20270;-71
2022/09/19 03:39:56;;;;;;;4.10;3.67;;;;;;;8.31;66.46;94924.25;5077089;28;20192;-71
2022/09/19 03:42:23;;;;;;;4.00;3.60;;;;;;;8.31;66.60;94915.19;5076969;28;20208;-72
2022/09/19 03:44:50;;;;;;;5.22;4.32;;;;;;;8.29;66.65;94915.56;5076116;28;20197;-71
2022/09/19 03:47:20;;;;;;;4.18;3.53;;;;;;;8.26;66.79;94898.94;5076693;28;20181;-71
2022/09/19 03:49:49;;;;;;;4.10;3.70;;;;;;;8.22;67.38;94907.06;5076611;28;20498;-71
2022/09/19 03:52:16;;;;;;;8.77;3.85;;;;;;;8.24;66.75;94898.47;5075457;28;20189;-71
2022/09/19 03:54:44;;;;;;;5.05;4.18;;;;;;;8.23;67.00;94902.38;5075629;28;20633;-71
2022/09/19 03:57:11;;;;;;;4.88;4.05;;;;;;;8.20;67.01;94901.91;5076329;28;20204;-71
2022/09/19 03:59:39;;;;;;;7.47;4.53;;;;;;;8.17;66.50;94905.34;5076721;28;20189;-71
2022/09/19 04:02:06;;;;;;;6.00;4.15;;;;;;;8.13;66.05;94900.88;5076327;28;20197;-71
2022/09/19 04:04:35;;;;;;;6.47;4.22;;;;;;;8.08;66.09;94893.66;5076235;28;20200;-71
2022/09/19 04:07:02;;;;;;;5.35;4.60;;;;;;;8.05;66.01;94888.03;5076624;28;20192;-71
2022/09/19 04:09:28;;;;;;;5.68;4.43;;;;;;;8.03;66.32;94884.84;5075829;28;20220;-71
2022/09/19 04:11:56;;;;;;;5.82;4.43;;;;;;;8.06;66.70;94895.13;5075474;28;20208;-71
2022/09/19 04:14:23;;;;;;;4.88;4.47;;;;;;;8.08;66.76;94892.84;5075003;28;20237;-71
2022/09/19 04:16:50;;;;;;;6.72;4.13;;;;;;;8.06;66.40;94900.63;5076287;28;20209;-72
2022/09/19 04:19:17;;;;;;;7.07;4.43;;;;;;;8.04;66.92;94905.66;5075749;28;20208;-72
2022/09/19 04:21:46;;;;;;;6.45;4.45;;;;;;;8.03;66.75;94901.31;5075920;28;20212;-73
2022/09/19 04:24:14;;;;;;;6.15;4.53;;;;;;;8.03;66.96;94898.59;5075185;28;20193;-72
2022/09/19 04:26:43;;;;;;;8.98;4.82;;;;;;;7.99;66.42;94903.13;5075942;28;20174;-72
2022/09/19 04:29:10;;;;;;;10.60;5.55;;;;;;;7.94;66.29;94891.22;5076066;28;20243;-72
2022/09/19 04:31:39;;;;;;;7.90;4.95;;;;;;;7.91;66.39;94894.66;5074995;28;20211;-72
2022/09/19 04:34:06;;;;;;;7.07;5.88;;;;;;;7.89;66.54;94894.19;5075925;28;20204;-72
2022/09/19 04:36:33;;;;;;;9.75;5.13;;;;;;;7.90;66.70;94895.00;5075601;28;20212;-72
2022/09/19 04:39:02;;;;;;;7.03;5.10;;;;;;;7.89;66.46;94894.19;5075929;28;20196;-72
2022/09/19 04:41:32;;;;;;;8.95;4.97;;;;;;;7.89;66.51;94901.63;5076042;28;20197;-72
2022/09/19 04:43:59;;;;;;;7.78;4.78;;;;;;;7.92;66.61;94893.53;5075895;28;20200;-72
2022/09/19 04:46:26;;;;;;;8.40;5.10;;;;;;;7.95;67.03;94890.09;5074458;28;20201;-72
2022/09/19 04:48:54;;;;;;;6.60;4.50;;;;;;;8.01;67.13;94895.38;5075452;28;20528;-72
2022/09/19 04:51:21;;;;;;;7.18;4.47;;;;;;;8.04;67.28;94892.75;5075954;28;20173;-71
2022/09/19 04:53:48;;;;;;;7.55;4.82;;;;;;;8.10;67.15;94896.06;5075388;28;20204;-72
2022/09/19 04:56:17;;;;;;;7.38;5.00;;;;;;;8.11;66.94;94892.97;5075507;28;20216;-71
2022/09/19 04:58:44;;;;;;;7.82;5.10;;;;;;;8.13;67.46;94895.38;5075556;28;20268;-71
2022/09/19 05:01:11;;;;;;;7.63;4.90;;;;;;;8.14;67.07;94892.28;5075290;28;20685;-71
2022/09/19 05:03:38;;;;;;;6.90;4.88;;;;;;;8.15;67.70;94902.13;5074881;28;20185;-71
2022/09/19 05:06:06;;;;;;;6.45;4.68;;;;;;;8.19;67.81;94894.00;5074994;28;20196;-71
2022/09/19 05:08:33;;;;;;;5.65;4.22;;;;;;;8.24;67.92;94888.28;5074623;28;20211;-71
2022/09/19 05:11:01;;;;;;;4.95;4.38;;;;;;;8.30;67.66;94897.13;5074912;28;20203;-71
2022/09/19 05:13:31;;;;;;;9.45;5.53;;;;;;;8.34;67.66;94901.56;5074233;28;20219;-71
2022/09/19 05:16:00;;;;;;;7.78;5.57;;;;;;;8.39;67.84;94901.41;5074436;28;20212;-72
2022/09/19 05:18:28;;;;;;;6.55;5.65;;;;;;;8.44;67.81;94903.91;5074737;28;20579;-71
2022/09/19 05:20:56;;;;;;;6.18;5.05;;;;;;;8.51;67.48;94903.34;5074995;28;20207;-71
2022/09/19 05:23:23;;;;;;;11.52;5.90;;;;;;;8.55;67.64;94907.00;5075295;28;20220;-71
2022/09/19 05:25:53;;;;;;;8.32;5.68;;;;;;;8.60;68.10;94911.47;5074997;28;20606;-71
2022/09/19 05:28:21;;;;;;;6.32;4.53;;;;;;;8.66;67.86;94916.38;5074283;28;20197;-71
2022/09/19 05:30:54;;;;;;;4.75;4.20;;;;;;;8.71;67.58;94923.59;5075383;28;20196;-72
2022/09/19 05:33:23;;;;;;;9.75;7.60;;;;;;;8.74;67.98;94914.66;5075501;28;20196;-72
2022/09/19 05:35:50;;;;;;;8.07;7.32;;;;;;;8.79;67.81;94913.66;5075081;28;20212;-72
2022/09/19 05:38:17;;;;;;;9.50;7.22;;;;;;;8.84;67.74;94922.44;5074210;28;20204;-72
2022/09/19 05:40:44;;;;;;;7.35;6.60;;;;;;;8.87;67.61;94918.22;5074211;28;20204;-72
2022/09/19 05:43:11;;;;;;;8.52;6.22;;;;;;;8.90;67.70;94923.03;5074154;28;20193;-72
2022/09/19 05:45:38;;;;;;;6.25;5.65;;;;;;;8.94;67.61;94917.66;5075316;28;20383;-69
2022/09/19 05:48:07;;;;;;;6.32;5.72;;;;;;;8.92;67.29;94915.22;5074090;28;20193;-71
2022/09/19 05:50:34;;;;;;;6.93;5.63;;;;;;;8.97;67.64;94916.94;5074785;28;20231;-72
2022/09/19 05:55:46;;;;;;;6.82;5.40;;;;;;;8.99;67.33;94914.66;5074332;28;20284;-71
2022/09/19 05:58:13;;;;;;;7.80;6.22;;;;;;;9.00;67.74;94906.03;5074229;28;20200;-71
2022/09/19 06:00:40;;;;;;;13.13;11.77;;;;;;;9.05;67.99;94919.56;5074994;28;20192;-70
2022/09/19 06:03:16;;;;;;;14.65;13.25;;;;;;;9.07;67.56;94913.72;5075083;28;20196;-70
2022/09/19 06:05:45;;;;;;;14.27;13.07;;;;;;;9.08;67.63;94912.56;5074975;28;20189;-71
2022/09/19 06:08:12;;;;;;;10.68;9.77;;;;;;;9.10;67.72;94911.06;5074945;28;20192;-71
2022/09/19 06:10:41;;;;;;;9.02;7.50;;;;;;;9.15;68.03;94916.34;5074227;28;20617;-71
2022/09/19 06:13:08;;;;;;;7.95;6.88;;;;;;;9.22;68.13;94912.19;5074987;28;20204;-72
2022/09/19 06:15:35;;;;;;;8.15;5.90;;;;;;;9.25;67.65;94917.78;5075244;28;20243;-72
2022/09/19 06:18:02;;;;;;;8.00;7.20;;;;;;;9.26;67.74;94911.16;5077970;28;20279;-72
2022/09/19 06:20:30;;;;;;;7.75;6.65;;;;;;;9.30;67.57;94914.00;5078481;28;20185;-72
2022/09/19 06:22:57;;;;;;;6.63;5.90;;;;;;;9.35;67.25;94920.06;5077794;28;20200;-72
2022/09/19 06:25:25;;;;;;;7.18;5.80;;;;;;;9.36;66.97;94913.41;5077816;28;20207;-72
2022/09/19 06:27:55;;;;;;;5.57;5.07;;;;;;;9.40;67.17;94919.84;5078494;28;20635;-72
2022/09/19 06:30:22;;;;;;;8.55;5.07;;;;;;;9.43;67.26;94915.56;5077607;28;20200;-72
2022/09/19 06:32:49;;;;;;;5.03;4.65;;;;;;;9.49;67.14;94916.13;5077880;28;20225;-72
2022/09/19 06:35:16;;;;;;;5.95;5.13;;;;;;;9.54;67.19;94924.94;5077856;28;20274;-72
2022/09/19 06:37:45;;;;;;;7.32;5.35;;;;;;;9.59;66.97;94919.19;5077804;28;20208;-72
2022/09/19 06:40:13;;;;;;;5.63;4.88;;;;;;;9.63;66.56;94924.78;5077350;28;20641;-72
2022/09/19 06:42:40;;;;;;;5.22;4.70;;;;;;;9.69;66.61;94914.31;5078541;28;20186;-72
2022/09/19 06:45:08;;;;;;;5.80;5.20;;;;;;;9.73;66.96;94917.97;5078375;28;20239;-72
2022/09/19 06:47:36;;;;;;;6.72;5.55;;;;;;;9.77;66.70;94905.13;5078075;28;20527;-72
2022/09/19 06:50:04;;;;;;;7.15;5.82;;;;;;;9.82;66.67;94919.41;5078239;28;20280;-70
2022/09/19 06:52:31;;;;;;;6.93;6.30;;;;;;;9.87;66.57;94910.88;5078099;28;20284;-72
2022/09/19 06:54:59;;;;;;;7.32;6.57;;;;;;;9.92;66.34;94907.09;5078089;28;20189;-70
2022/09/19 06:57:26;;;;;;;7.80;5.40;;;;;;;9.99;66.07;94912.81;5077983;28;20212;-70
2022/09/19 06:59:52;;;;;;;6.40;5.80;;;;;;;10.01;65.58;94910.47;5077735;28;20624;-70
2022/09/19 07:02:21;;;;;;;6.22;5.18;;;;;;;10.01;64.88;94910.47;5076793;28;20213;-72
2022/09/19 07:04:47;;;;;;;6.15;5.50;;;;;;;10.04;65.34;94907.03;5078128;28;20199;-71
2022/09/19 07:07:15;;;;;;;6.32;5.57;;;;;;;10.13;65.32;94906.88;5077478;28;20207;-71
2022/09/19 07:09:42;;;;;;;7.03;5.10;;;;;;;10.20;64.66;94906.22;5077962;28;20221;-72
2022/09/19 07:12:11;;;;;;;5.22;4.72;;;;;;;10.26;64.77;94899.34;5077991;28;20213;-72
2022/09/19 07:14:41;;;;;;;5.25;4.82;;;;;;;10.32;63.75;94895.19;5076625;28;20240;-72
2022/09/19 07:17:08;;;;;;;6.60;4.65;;;;;;;10.32;63.93;94886.91;5077710;28;20201;-72
2022/09/19 07:19:34;;;;;;;6.03;4.55;;;;;;;10.38;63.84;94890.97;5077277;28;20201;-72
2022/09/19 07:22:01;;;;;;;5.57;4.65;;;;;;;10.46;63.40;94894.75;5077773;28;20196;-72
2022/09/19 07:24:28;;;;;;;5.43;4.60;;;;;;;10.53;63.22;94897.66;5077676;28;20189;-71
2022/09/19 07:26:55;;;;;;;5.97;5.38;;;;;;;10.65;63.73;94899.53;5077059;28;20185;-71
2022/09/19 07:29:25;;;;;;;6.18;5.30;;;;;;;10.77;63.13;94896.66;5076400;28;20246;-71
2022/09/19 07:31:52;;;;;;;6.93;5.50;;;;;;;10.86;63.12;94894.50;5076246;28;20216;-72
2022/09/19 07:34:18;;;;;;;5.63;4.60;;;;;;;10.97;62.50;94894.75;5077529;28;20190;-72
2022/09/19 07:36:45;;;;;;;6.15;4.40;;;;;;;11.11;62.62;94889.56;5077353;28;20537;-71
2022/09/19 07:39:12;;;;;;;5.40;4.90;;;;;;;11.22;63.02;94889.78;5077490;28;20186;-71
2022/09/19 07:41:39;;;;;;;6.93;5.28;;;;;;;11.30;61.79;94888.78;5077273;28;20196;-71
2022/09/19 07:44:06;;;;;;;6.10;5.57;;;;;;;11.36;61.99;94884.56;5077265;28;20197;-72
2022/09/19 07:46:34;;;;;;;5.30;4.72;;;;;;;11.50;62.83;94876.56;5076764;28;20200;-72
2022/09/19 07:49:01;;;;;;;8.80;5.18;;;;;;;11.67;61.79;94883.63;5076739;28;20204;-72
2022/09/19 07:51:27;;;;;;;7.88;4.85;;;;;;;11.83;61.80;94883.53;5077023;28;20193;-74
2022/09/19 07:53:56;;;;;;;8.45;4.82;;;;;;;11.98;61.34;94876.34;5076861;28;20188;-73
2022/09/19 07:56:23;;;;;;;4.75;4.30;;;;;;;12.06;60.59;94863.47;5075673;28;20208;-72
2022/09/19 07:58:49;;;;;;;5.53;5.03;;;;;;;12.13;61.09;94866.34;5076955;28;20177;-72
2022/09/19 08:01:17;;;;;;;4.82;4.32;;;;;;;12.17;60.63;94856.16;5076846;28;20196;-73
2022/09/19 08:03:46;;;;;;;4.95;4.55;;;;;;;12.18;58.89;94860.53;5075868;28;20200;-74
2022/09/19 08:06:13;;;;;;;5.05;4.63;;;;;;;12.18;59.79;94860.53;5076391;28;20215;-74
2022/09/19 08:08:40;;;;;;;5.85;4.32;;;;;;;12.18;60.13;94855.78;5076168;28;20205;-74
2022/09/19 08:11:07;;;;;;;6.25;5.05;;;;;;;12.21;59.45;94849.53;5075527;28;20193;-74
2022/09/19 08:13:34;;;;;;;5.78;4.57;;;;;;;12.28;58.86;94848.84;5076421;28;20225;-74
2022/09/19 08:16:01;;;;;;;4.68;4.20;;;;;;;12.37;58.91;94845.81;5076330;28;20568;-74
2022/09/19 08:18:28;;;;;;;5.60;4.50;;;;;;;12.43;58.04;94847.91;5076466;28;20209;-73
2022/09/19 08:20:57;;;;;;;5.30;4.07;;;;;;;12.46;58.50;94840.84;5075583;28;20296;-74
2022/09/19 08:23:23;;;;;;;5.38;4.88;;;;;;;12.59;59.41;94841.44;5075475;28;20201;-74
2022/09/19 08:25:53;;;;;;;4.85;4.47;;;;;;;12.73;59.50;94842.47;5075736;28;20197;-74
2022/09/19 08:28:21;;;;;;;7.38;5.30;;;;;;;12.83;59.49;94841.03;5076424;28;20173;-74
2022/09/19 08:30:48;;;;;;;5.80;5.13;;;;;;;12.96;59.03;94838.81;5076195;28;20228;-74
2022/09/19 08:33:16;;;;;;;5.63;5.13;;;;;;;13.14;58.85;94839.06;5075585;28;20264;-74
2022/09/19 08:35:43;;;;;;;6.13;5.40;;;;;;;13.28;58.94;94839.31;5075368;28;20208;-74
2022/09/19 08:38:13;;;;;;;5.22;4.78;;;;;;;13.32;58.43;94840.16;5075143;28;20213;-74
2022/09/19 08:40:51;;;;;;;5.82;4.63;;;;;;;13.40;58.25;94835.53;5076084;28;20208;-74
2022/09/19 08:43:23;;;;;;;5.50;4.95;;;;;;;13.57;57.25;94834.13;5075855;28;20181;-75
2022/09/19 08:46:03;;;;;;;4.85;4.38;;;;;;;13.70;57.36;94832.69;5074840;28;20212;-74
2022/09/19 08:48:38;;;;;;;5.25;4.75;;;;;;;13.85;56.67;94826.13;5075116;28;20667;-74
2022/09/19 08:51:09;;;;;;;6.38;5.15;;;;;;;14.01;58.03;94838.97;5075136;28;20192;-74
2022/09/19 08:53:41;;;;;;;5.00;4.50;;;;;;;14.15;55.14;94828.00;5075172;28;20201;-74
2022/09/19 08:56:13;;;;;;;5.20;4.70;;;;;;;14.15;55.46;94837.13;5075860;28;20186;-74
2022/09/19 08:58:45;;;;;;;5.97;4.97;;;;;;;14.19;54.24;94828.84;5075953;28;20217;-74
2022/09/19 09:01:15;;;;;;;5.78;4.82;;;;;;;14.22;55.65;94828.09;5075297;28;20201;-74
2022/09/19 09:03:43;;;;;;;6.72;4.43;;;;;;;14.27;56.22;94824.16;5074690;28;20239;-74
2022/09/19 09:06:21;;;;;;;5.53;3.97;;;;;;;14.33;55.50;94822.63;5074279;28;20613;-74
2022/09/19 09:08:56;;;;;;;4.13;3.72;;;;;;;14.44;55.18;94823.50;5075599;28;20234;-74
2022/09/19 09:11:33;;;;;;;5.25;4.43;;;;;;;14.59;54.78;94819.69;5075137;28;20192;-74
2022/09/19 09:14:07;;;;;;;4.43;4.03;;;;;;;14.66;54.66;94824.50;5074385;28;20236;-74
2022/09/19 09:16:52;;;;;;;6.75;4.53;;;;;;;14.61;54.19;94822.91;5074511;28;20254;-73
2022/09/19 09:19:49;;;;;;;5.10;4.22;;;;;;;14.58;53.64;94818.13;5074388;28;20288;-74
2022/09/19 09:22:22;;;;;;;6.53;4.63;;;;;;;14.57;53.42;94810.97;5066111;28;20218;-74
2022/09/19 09:24:55;;;;;;;6.78;4.97;;;;;;;14.56;53.44;94809.41;5074237;28;20196;-74
2022/09/19 09:27:25;;;;;;;6.50;4.30;;;;;;;14.55;54.18;94799.44;5074788;28;20192;-74
2022/09/19 09:29:54;;;;;;;4.80;4.20;;;;;;;14.63;53.13;94789.19;5075348;28;20185;-74
2022/09/19 09:32:25;;;;;;;6.50;4.43;;;;;;;14.68;53.21;94780.53;5074298;28;20193;-74
2022/09/19 09:34:56;;;;;;;4.68;4.22;;;;;;;14.75;53.76;94775.03;5074626;28;20197;-74
2022/09/19 09:37:25;;;;;;;5.47;3.88;;;;;;;14.90;54.69;94767.56;5075123;28;20226;-74
2022/09/19 09:40:00;;;;;;;7.93;4.38;;;;;;;15.03;53.45;94768.03;5075281;28;20185;-74
2022/09/19 09:42:32;;;;;;;5.68;3.92;;;;;;;15.15;52.79;94762.94;5073871;28;20306;-74
2022/09/19 09:45:04;;;;;;;6.00;4.20;;;;;;;15.29;52.68;94756.66;5074880;28;20193;-74
2022/09/19 09:47:44;;;;;;;5.25;4.15;;;;;;;15.39;52.10;94761.44;5075116;28;20200;-74
2022/09/19 09:50:32;;;;;;;6.30;4.00;;;;;;;15.52;53.13;94761.91;5074188;28;20193;-74
2022/09/19 09:53:03;;;;;;;5.50;3.50;;;;;;;15.64;53.07;94757.97;5079246;28;20263;-74
2022/09/19 09:58:29;;;;;;;5.40;3.75;;;;;;;15.92;49.96;94743.34;5078648;28;20205;-75
2022/09/19 10:04:01;;;;;;;5.20;3.67;;;;;;;16.00;49.51;94733.03;5078748;28;20613;-74
2022/09/19 10:06:31;;;;;;;6.80;3.85;;;;;;;16.07;49.60;94735.81;5077968;28;20216;-74
2022/09/19 10:09:04;;;;;;;4.05;3.60;;;;;;;16.03;48.70;94737.81;5078210;28;20189;-74
2022/09/19 10:11:39;;;;;;;5.68;3.88;;;;;;;15.94;47.16;94735.44;5078703;28;20235;-74
2022/09/19 10:14:08;;;;;;;4.68;3.75;;;;;;;15.95;47.46;94731.44;5078692;28;20304;-74
2022/09/19 10:16:36;;;;;;;6.93;3.90;;;;;;;16.05;49.88;94729.84;5060781;28;20236;-74
2022/09/19 10:19:07;;;;;;;6.78;3.55;;;;;;;16.20;49.57;94725.09;5078704;28;20261;-74
2022/09/19 10:21:33;;;;;;;4.68;4.13;;;;;;;16.43;50.44;94730.25;5078341;28;20185;-74
2022/09/19 10:24:00;;;;;;;7.05;3.45;;;;;;;16.70;49.07;94720.25;5077886;28;20200;-74
2022/09/19 10:26:30;;;;;;;6.05;4.22;;;;;;;16.78;47.33;94710.75;5077283;28;20280;-74
2022/09/19 10:29:00;;;;;;;4.63;4.22;;;;;;;16.79;46.21;94712.34;5077958;28;20193;-74
2022/09/19 10:31:34;;;;;;;4.97;4.05;;;;;;;16.74;46.98;94709.16;5078207;28;20185;-74
2022/09/19 10:34:04;;;;;;;5.15;3.70;;;;;;;16.87;45.48;94707.53;5077603;28;20194;-74
2022/09/19 10:36:33;;;;;;;4.65;3.13;;;;;;;16.93;46.93;94699.56;5077315;28;20207;-74
2022/09/19 10:39:02;;;;;;;7.57;3.70;;;;;;;16.97;46.80;94700.34;5077214;28;20567;-74
2022/09/19 10:41:32;;;;;;;4.97;3.80;;;;;;;17.07;43.74;94691.16;5077477;28;20193;-74
2022/09/19 10:44:02;;;;;;;6.80;3.17;;;;;;;17.22;42.61;94687.13;5078561;28;20178;-74
2022/09/19 10:46:35;;;;;;;4.75;2.80;;;;;;;17.23;42.75;94690.69;5077236;28;20189;-74
2022/09/19 10:49:05;;;;;;;5.10;2.85;;;;;;;17.24;42.55;94672.75;5077349;28;20197;-74
2022/09/19 10:51:35;;;;;;;3.70;2.60;;;;;;;17.25;43.14;94669.59;5077123;28;20201;-74
2022/09/19 10:54:11;;;;;;;6.50;3.20;;;;;;;17.27;43.73;94666.38;5077254;28;20197;-74
2022/09/19 10:56:40;;;;;;;6.25;3.38;;;;;;;17.29;42.27;94666.78;5077082;28;20196;-74
2022/09/19 10:59:25;;;;;;;9.55;8.63;;;;;;;17.43;43.28;94660.31;5076917;28;20217;-74
2022/09/19 11:02:20;;;;;;;5.68;3.67;;;;;;;17.57;43.08;94660.22;5077004;28;20204;-74
2022/09/19 11:04:59;;;;;;;5.47;3.30;;;;;;;17.71;42.78;94645.41;5067791;28;20240;-74
2022/09/19 11:07:29;;;;;;;3.40;2.75;;;;;;;17.70;42.70;94646.63;5077820;28;20272;-74
2022/09/19 11:09:59;;;;;;;4.32;2.88;;;;;;;17.70;42.81;94647.41;5076993;28;20296;-74
2022/09/19 11:12:27;;;;;;;3.38;2.80;;;;;;;17.75;42.38;94638.63;5076708;28;20284;-74
2022/09/19 11:14:56;;;;;;;3.40;2.25;;;;;;;17.82;41.30;94635.00;5077208;28;20680;-74
2022/09/19 11:17:47;;;;;;;2.53;2.15;;;;;;;17.93;42.63;94629.34;5076648;28;20204;-74
2022/09/19 11:20:23;;;;;;;3.47;2.60;;;;;;;17.98;42.51;94620.53;5077606;28;20193;-74
2022/09/19 11:23:07;;;;;;;3.60;3.03;;;;;;;18.04;41.08;94624.47;5077289;28;20206;-74
2022/09/19 11:25:38;;;;;;;4.28;2.63;;;;;;;18.14;39.84;94623.56;5077525;28;20254;-74
2022/09/19 11:28:14;;;;;;;3.33;2.38;;;;;;;18.18;40.63;94617.97;5077211;28;20182;-74
2022/09/19 11:30:50;;;;;;;2.92;2.50;;;;;;;18.19;37.39;94620.34;5077431;28;20262;-74
2022/09/19 11:33:38;;;;;;;4.47;2.33;;;;;;;18.17;38.89;94616.38;5077098;28;20637;-74
2022/09/19 11:36:08;;;;;;;3.58;2.30;;;;;;;18.16;38.62;94618.38;5077577;28;20204;-73
2022/09/19 11:38:42;;;;;;;4.68;2.40;;;;;;;18.22;39.02;94615.94;5077138;28;20262;-74
2022/09/19 11:41:27;;;;;;;3.25;2.30;;;;;;;18.22;37.72;94608.34;5077399;28;20203;-73
2022/09/19 11:44:15;;;;;;;2.20;2.00;;;;;;;18.25;37.34;94607.50;5076213;28;20189;-73
2022/09/19 11:46:49;;;;;;;3.85;2.10;;;;;;;18.29;39.16;94591.53;5077268;28;20193;-73
2022/09/19 11:49:51;;;;;;;4.78;2.22;;;;;;;18.43;38.70;94595.38;5075967;28;20204;-73
2022/09/19 11:52:26;;;;;;;5.20;2.30;;;;;;;18.53;36.30;94597.28;5072957;28;20200;-74
2022/09/19 11:55:01;;;;;;;3.45;1.92;;;;;;;18.53;35.68;94606.44;5076913;28;20188;-74
2022/09/19 11:57:37;;;;;;;3.17;1.90;;;;;;;18.45;36.20;94604.94;5076939;28;20192;-74
2022/09/19 12:00:13;;;;;;;3.70;2.17;;;;;;;18.37;35.62;94599.81;5075742;28;20199;-74
2022/09/19 12:03:16;;;;;;;5.10;2.00;;;;;;;18.28;37.55;94609.50;5076791;28;20195;-73